sensor_id;sensor_type;location;lat;lon;timestamp;pressure;altitude;pressure_sealevel;temperature;humidity
74103;BME280;62853;46.166;3.640;2023-07-13T00:01:25;101269.41;;;16.54;100.00
74103;BME280;62853;46.166;3.640;2023-07-13T00:03:50;101270.69;;;16.61;100.00
74103;BME280;62853;46.166;3.640;2023-07-13T00:06:16;101270.69;;;16.61;100.00
74103;BME280;62853;46.166;3.640;2023-07-13T00:08:43;101261.94;;;16.59;100.00
74103;BME280;62853;46.166;3.640;2023-07-13T00:11:08;101264.09;;;16.54;100.00
74103;BME280;62853;46.166;3.640;2023-07-13T00:13:35;101253.81;;;16.49;100.00
74103;BME280;62853;46.166;3.640;2023-07-13T00:16:03;101260.59;;;16.53;100.00
74103;BME280;62853;46.166;3.640;2023-07-13T00:18:29;101272.59;;;16.59;100.00
74103;BME280;62853;46.166;3.640;2023-07-13T00:20:55;101276.34;;;16.57;100.00
74103;BME280;62853;46.166;3.640;2023-07-13T00:23:22;101266.34;;;16.47;100.00
74103;BME280;62853;46.166;3.640;2023-07-13T00:25:48;101265.53;;;16.47;100.00
74103;BME280;62853;46.166;3.640;2023-07-13T00:28:15;101265.63;;;16.45;100.00
74103;BME280;62853;46.166;3.640;2023-07-13T00:30:41;101252.56;;;16.42;100.00
74103;BME280;62853;46.166;3.640;2023-07-13T00:33:06;101256.81;;;16.45;100.00
74103;BME280;62853;46.166;3.640;2023-07-13T00:35:34;101258.75;;;16.43;100.00
74103;BME280;62853;46.166;3.640;2023-07-13T00:37:59;101259.47;;;16.45;100.00
74103;BME280;62853;46.166;3.640;2023-07-13T00:40:25;101254.88;;;16.23;100.00
74103;BME280;62853;46.166;3.640;2023-07-13T00:42:52;101269.66;;;16.14;100.00
74103;BME280;62853;46.166;3.640;2023-07-13T00:47:43;101274.78;;;16.04;100.00
74103;BME280;62853;46.166;3.640;2023-07-13T00:50:11;101275.31;;;15.96;100.00
74103;BME280;62853;46.166;3.640;2023-07-13T00:52:41;101273.38;;;15.98;100.00
74103;BME280;62853;46.166;3.640;2023-07-13T00:55:09;101278.19;;;15.93;100.00
74103;BME280;62853;46.166;3.640;2023-07-13T00:57:36;101279.00;;;16.07;100.00
74103;BME280;62853;46.166;3.640;2023-07-13T01:00:04;101285.47;;;16.15;100.00
74103;BME280;62853;46.166;3.640;2023-07-13T01:02:32;101275.19;;;16.11;100.00
74103;BME280;62853;46.166;3.640;2023-07-13T01:04:58;101278.28;;;16.17;100.00
74103;BME280;62853;46.166;3.640;2023-07-13T01:07:24;101268.06;;;15.98;100.00
74103;BME280;62853;46.166;3.640;2023-07-13T01:09:50;101276.97;;;16.10;100.00
74103;BME280;62853;46.166;3.640;2023-07-13T01:12:15;101277.44;;;16.04;100.00
74103;BME280;62853;46.166;3.640;2023-07-13T01:14:41;101280.41;;;16.12;100.00
74103;BME280;62853;46.166;3.640;2023-07-13T01:17:09;101291.56;;;15.92;100.00
74103;BME280;62853;46.166;3.640;2023-07-13T01:19:38;101288.28;;;16.01;100.00
74103;BME280;62853;46.166;3.640;2023-07-13T01:22:11;101286.41;;;15.90;100.00
74103;BME280;62853;46.166;3.640;2023-07-13T01:24:40;101286.06;;;15.82;100.00
74103;BME280;62853;46.166;3.640;2023-07-13T01:27:09;101291.16;;;15.85;100.00
74103;BME280;62853;46.166;3.640;2023-07-13T01:29:36;101276.03;;;15.98;100.00
74103;BME280;62853;46.166;3.640;2023-07-13T01:32:13;101276.56;;;16.04;100.00
74103;BME280;62853;46.166;3.640;2023-07-13T01:34:39;101279.69;;;15.97;100.00
74103;BME280;62853;46.166;3.640;2023-07-13T01:37:08;101277.22;;;15.94;100.00
74103;BME280;62853;46.166;3.640;2023-07-13T01:39:33;101280.00;;;16.06;100.00
74103;BME280;62853;46.166;3.640;2023-07-13T01:41:59;101281.25;;;16.00;100.00
74103;BME280;62853;46.166;3.640;2023-07-13T01:44:24;101279.16;;;15.92;100.00
74103;BME280;62853;46.166;3.640;2023-07-13T01:46:49;101285.84;;;15.85;100.00
74103;BME280;62853;46.166;3.640;2023-07-13T01:49:15;101281.91;;;15.78;100.00
74103;BME280;62853;46.166;3.640;2023-07-13T01:51:40;101283.00;;;15.75;100.00
74103;BME280;62853;46.166;3.640;2023-07-13T01:54:05;101286.34;;;15.65;100.00
74103;BME280;62853;46.166;3.640;2023-07-13T01:56:31;101289.75;;;15.67;100.00
74103;BME280;62853;46.166;3.640;2023-07-13T01:58:56;101294.31;;;15.65;100.00
74103;BME280;62853;46.166;3.640;2023-07-13T02:01:22;101293.38;;;15.66;100.00
74103;BME280;62853;46.166;3.640;2023-07-13T02:03:47;101294.63;;;15.73;100.00
74103;BME280;62853;46.166;3.640;2023-07-13T02:06:12;101294.47;;;15.76;100.00
74103;BME280;62853;46.166;3.640;2023-07-13T02:08:38;101300.50;;;15.65;100.00
74103;BME280;62853;46.166;3.640;2023-07-13T02:11:03;101296.34;;;15.61;100.00
74103;BME280;62853;46.166;3.640;2023-07-13T02:13:29;101301.94;;;15.56;100.00
74103;BME280;62853;46.166;3.640;2023-07-13T02:15:54;101303.66;;;15.57;100.00
74103;BME280;62853;46.166;3.640;2023-07-13T02:18:20;101306.31;;;15.57;100.00
74103;BME280;62853;46.166;3.640;2023-07-13T02:20:45;101299.53;;;15.53;100.00
74103;BME280;62853;46.166;3.640;2023-07-13T02:23:11;101298.25;;;15.59;100.00
74103;BME280;62853;46.166;3.640;2023-07-13T02:25:36;101298.47;;;15.56;100.00
74103;BME280;62853;46.166;3.640;2023-07-13T02:28:02;101294.44;;;15.50;100.00
74103;BME280;62853;46.166;3.640;2023-07-13T02:30:29;101294.22;;;15.53;100.00
74103;BME280;62853;46.166;3.640;2023-07-13T02:32:55;101298.88;;;15.50;100.00
74103;BME280;62853;46.166;3.640;2023-07-13T02:35:21;101303.34;;;15.49;100.00
74103;BME280;62853;46.166;3.640;2023-07-13T02:37:47;101303.53;;;15.46;100.00
74103;BME280;62853;46.166;3.640;2023-07-13T02:40:12;101298.47;;;15.56;100.00
74103;BME280;62853;46.166;3.640;2023-07-13T02:42:38;101297.09;;;15.50;100.00
74103;BME280;62853;46.166;3.640;2023-07-13T02:45:04;101295.56;;;15.46;100.00
74103;BME280;62853;46.166;3.640;2023-07-13T02:47:32;101297.09;;;15.50;100.00
74103;BME280;62853;46.166;3.640;2023-07-13T02:49:57;101305.69;;;15.54;100.00
74103;BME280;62853;46.166;3.640;2023-07-13T02:52:22;101293.88;;;15.45;100.00
74103;BME280;62853;46.166;3.640;2023-07-13T02:54:48;101297.81;;;15.52;100.00
74103;BME280;62853;46.166;3.640;2023-07-13T02:57:13;101296.75;;;15.42;100.00
74103;BME280;62853;46.166;3.640;2023-07-13T02:59:39;101288.25;;;15.37;100.00
74103;BME280;62853;46.166;3.640;2023-07-13T03:02:04;101294.50;;;15.36;100.00
74103;BME280;62853;46.166;3.640;2023-07-13T03:04:29;101298.03;;;15.36;100.00
74103;BME280;62853;46.166;3.640;2023-07-13T03:06:55;101297.59;;;15.30;100.00
74103;BME280;62853;46.166;3.640;2023-07-13T03:09:24;101299.06;;;15.34;100.00
74103;BME280;62853;46.166;3.640;2023-07-13T03:11:49;101302.06;;;15.42;100.00
74103;BME280;62853;46.166;3.640;2023-07-13T03:14:17;101306.69;;;15.25;100.00
74103;BME280;62853;46.166;3.640;2023-07-13T03:16:42;101302.75;;;15.31;100.00
74103;BME280;62853;46.166;3.640;2023-07-13T03:19:07;101297.06;;;15.24;100.00
74103;BME280;62853;46.166;3.640;2023-07-13T03:21:33;101296.63;;;15.31;100.00
74103;BME280;62853;46.166;3.640;2023-07-13T03:23:58;101304.78;;;15.28;100.00
74103;BME280;62853;46.166;3.640;2023-07-13T03:26:23;101307.22;;;15.31;100.00
74103;BME280;62853;46.166;3.640;2023-07-13T03:28:49;101311.69;;;15.30;100.00
74103;BME280;62853;46.166;3.640;2023-07-13T03:31:18;101311.56;;;15.19;100.00
74103;BME280;62853;46.166;3.640;2023-07-13T03:33:43;101314.44;;;15.29;100.00
74103;BME280;62853;46.166;3.640;2023-07-13T03:36:17;101316.97;;;15.17;100.00
74103;BME280;62853;46.166;3.640;2023-07-13T03:38:50;101323.44;;;15.13;100.00
74103;BME280;62853;46.166;3.640;2023-07-13T03:41:17;101323.44;;;15.13;100.00
74103;BME280;62853;46.166;3.640;2023-07-13T03:43:42;101333.63;;;15.19;100.00
74103;BME280;62853;46.166;3.640;2023-07-13T03:46:08;101325.13;;;15.14;100.00
74103;BME280;62853;46.166;3.640;2023-07-13T03:48:33;101328.56;;;15.16;100.00
74103;BME280;62853;46.166;3.640;2023-07-13T03:50:59;101332.16;;;15.15;100.00
74103;BME280;62853;46.166;3.640;2023-07-13T03:53:25;101319.59;;;15.04;100.00
74103;BME280;62853;46.166;3.640;2023-07-13T03:55:50;101325.09;;;15.01;100.00
74103;BME280;62853;46.166;3.640;2023-07-13T03:58:26;101325.84;;;15.03;100.00
74103;BME280;62853;46.166;3.640;2023-07-13T04:00:53;101322.25;;;15.04;100.00
74103;BME280;62853;46.166;3.640;2023-07-13T04:03:19;101337.56;;;15.14;100.00
74103;BME280;62853;46.166;3.640;2023-07-13T04:05:44;101335.53;;;15.17;100.00
74103;BME280;62853;46.166;3.640;2023-07-13T04:08:09;101341.03;;;15.14;100.00
74103;BME280;62853;46.166;3.640;2023-07-13T04:10:35;101343.84;;;15.25;100.00
74103;BME280;62853;46.166;3.640;2023-07-13T04:13:00;101342.03;;;15.26;100.00
74103;BME280;62853;46.166;3.640;2023-07-13T04:15:29;101351.50;;;15.30;100.00
74103;BME280;62853;46.166;3.640;2023-07-13T04:17:55;101342.47;;;15.33;100.00
74103;BME280;62853;46.166;3.640;2023-07-13T04:20:20;101348.31;;;15.38;100.00
74103;BME280;62853;46.166;3.640;2023-07-13T04:22:47;101351.66;;;15.41;100.00
74103;BME280;62853;46.166;3.640;2023-07-13T04:25:12;101351.84;;;15.51;100.00
74103;BME280;62853;46.166;3.640;2023-07-13T04:27:37;101352.09;;;15.48;100.00
74103;BME280;62853;46.166;3.640;2023-07-13T04:30:08;101344.44;;;15.56;100.00
74103;BME280;62853;46.166;3.640;2023-07-13T04:32:33;101351.69;;;15.67;100.00
74103;BME280;62853;46.166;3.640;2023-07-13T04:34:59;101357.63;;;15.71;100.00
74103;BME280;62853;46.166;3.640;2023-07-13T04:37:26;101361.44;;;15.67;100.00
74103;BME280;62853;46.166;3.640;2023-07-13T04:39:52;101361.34;;;15.68;100.00
74103;BME280;62853;46.166;3.640;2023-07-13T04:42:17;101362.03;;;15.85;100.00
74103;BME280;62853;46.166;3.640;2023-07-13T04:44:50;101371.25;;;15.92;100.00
74103;BME280;62853;46.166;3.640;2023-07-13T04:47:17;101368.19;;;15.98;100.00
74103;BME280;62853;46.166;3.640;2023-07-13T04:49:42;101371.28;;;16.05;100.00
74103;BME280;62853;46.166;3.640;2023-07-13T04:52:08;101376.06;;;16.12;100.00
74103;BME280;62853;46.166;3.640;2023-07-13T04:54:34;101374.56;;;16.21;100.00
74103;BME280;62853;46.166;3.640;2023-07-13T04:56:59;101366.28;;;16.26;100.00
74103;BME280;62853;46.166;3.640;2023-07-13T04:59:25;101375.31;;;16.36;100.00
74103;BME280;62853;46.166;3.640;2023-07-13T05:01:50;101373.69;;;16.46;100.00
74103;BME280;62853;46.166;3.640;2023-07-13T05:04:16;101377.72;;;16.52;100.00
74103;BME280;62853;46.166;3.640;2023-07-13T05:06:41;101381.09;;;16.54;100.00
74103;BME280;62853;46.166;3.640;2023-07-13T05:09:07;101390.13;;;16.64;100.00
74103;BME280;62853;46.166;3.640;2023-07-13T05:11:33;101387.13;;;16.69;100.00
74103;BME280;62853;46.166;3.640;2023-07-13T05:13:58;101389.03;;;16.80;100.00
74103;BME280;62853;46.166;3.640;2023-07-13T05:16:24;101396.78;;;16.83;100.00
74103;BME280;62853;46.166;3.640;2023-07-13T05:18:49;101386.78;;;16.86;100.00
74103;BME280;62853;46.166;3.640;2023-07-13T05:21:14;101396.78;;;16.96;100.00
74103;BME280;62853;46.166;3.640;2023-07-13T05:23:40;101391.41;;;17.08;100.00
74103;BME280;62853;46.166;3.640;2023-07-13T05:26:10;101393.97;;;17.10;100.00
74103;BME280;62853;46.166;3.640;2023-07-13T05:28:36;101397.97;;;17.16;100.00
74103;BME280;62853;46.166;3.640;2023-07-13T05:31:02;101405.84;;;17.17;100.00
74103;BME280;62853;46.166;3.640;2023-07-13T05:33:27;101402.22;;;17.18;100.00
74103;BME280;62853;46.166;3.640;2023-07-13T05:35:53;101407.13;;;17.11;100.00
74103;BME280;62853;46.166;3.640;2023-07-13T05:38:18;101401.31;;;17.06;100.00
74103;BME280;62853;46.166;3.640;2023-07-13T05:40:45;101410.03;;;17.08;100.00
74103;BME280;62853;46.166;3.640;2023-07-13T05:43:11;101408.88;;;17.00;100.00
74103;BME280;62853;46.166;3.640;2023-07-13T05:45:37;101407.09;;;17.00;100.00
74103;BME280;62853;46.166;3.640;2023-07-13T05:48:03;101421.97;;;17.03;100.00
74103;BME280;62853;46.166;3.640;2023-07-13T05:50:28;101408.66;;;17.03;100.00
74103;BME280;62853;46.166;3.640;2023-07-13T05:52:54;101424.31;;;17.07;100.00
74103;BME280;62853;46.166;3.640;2023-07-13T05:55:20;101421.44;;;17.10;100.00
74103;BME280;62853;46.166;3.640;2023-07-13T05:57:45;101429.09;;;17.15;100.00
74103;BME280;62853;46.166;3.640;2023-07-13T06:00:11;101424.38;;;17.19;100.00
74103;BME280;62853;46.166;3.640;2023-07-13T06:02:37;101416.53;;;17.28;100.00
74103;BME280;62853;46.166;3.640;2023-07-13T06:05:02;101426.53;;;17.38;100.00
74103;BME280;62853;46.166;3.640;2023-07-13T06:07:28;101425.81;;;17.47;100.00
74103;BME280;62853;46.166;3.640;2023-07-13T06:09:53;101437.72;;;17.54;100.00
74103;BME280;62853;46.166;3.640;2023-07-13T06:12:18;101440.00;;;17.47;100.00
74103;BME280;62853;46.166;3.640;2023-07-13T06:14:45;101437.56;;;17.44;100.00
74103;BME280;62853;46.166;3.640;2023-07-13T06:17:10;101438.91;;;17.50;100.00
74103;BME280;62853;46.166;3.640;2023-07-13T06:19:36;101442.06;;;17.55;100.00
74103;BME280;62853;46.166;3.640;2023-07-13T06:22:02;101438.00;;;17.62;100.00
74103;BME280;62853;46.166;3.640;2023-07-13T06:24:28;101439.34;;;17.68;100.00
74103;BME280;62853;46.166;3.640;2023-07-13T06:26:53;101437.56;;;17.80;100.00
74103;BME280;62853;46.166;3.640;2023-07-13T06:29:19;101446.91;;;17.85;100.00
74103;BME280;62853;46.166;3.640;2023-07-13T06:31:44;101438.75;;;18.00;100.00
74103;BME280;62853;46.166;3.640;2023-07-13T06:34:09;101442.38;;;17.99;100.00
74103;BME280;62853;46.166;3.640;2023-07-13T06:36:35;101445.75;;;18.01;100.00
74103;BME280;62853;46.166;3.640;2023-07-13T06:39:02;101449.53;;;17.98;100.00
74103;BME280;62853;46.166;3.640;2023-07-13T06:41:27;101456.31;;;18.02;100.00
74103;BME280;62853;46.166;3.640;2023-07-13T06:43:53;101455.47;;;18.02;100.00
74103;BME280;62853;46.166;3.640;2023-07-13T06:46:23;101458.25;;;18.00;100.00
74103;BME280;62853;46.166;3.640;2023-07-13T06:48:49;101463.47;;;18.02;100.00
74103;BME280;62853;46.166;3.640;2023-07-13T06:51:15;101464.09;;;18.06;100.00
74103;BME280;62853;46.166;3.640;2023-07-13T06:53:40;101459.97;;;18.01;100.00
74103;BME280;62853;46.166;3.640;2023-07-13T06:56:05;101469.63;;;18.02;100.00
74103;BME280;62853;46.166;3.640;2023-07-13T06:58:33;101469.69;;;18.14;100.00
74103;BME280;62853;46.166;3.640;2023-07-13T07:00:58;101462.66;;;18.24;100.00
74103;BME280;62853;46.166;3.640;2023-07-13T07:03:24;101468.13;;;18.22;100.00
74103;BME280;62853;46.166;3.640;2023-07-13T07:05:49;101469.31;;;18.30;100.00
74103;BME280;62853;46.166;3.640;2023-07-13T07:08:15;101460.41;;;18.42;100.00
74103;BME280;62853;46.166;3.640;2023-07-13T07:10:40;101473.50;;;18.45;100.00
74103;BME280;62853;46.166;3.640;2023-07-13T07:13:06;101472.38;;;18.48;100.00
74103;BME280;62853;46.166;3.640;2023-07-13T07:15:34;101474.81;;;18.51;100.00
74103;BME280;62853;46.166;3.640;2023-07-13T07:17:59;101474.69;;;18.52;100.00
74103;BME280;62853;46.166;3.640;2023-07-13T07:20:25;101475.53;;;18.53;100.00
74103;BME280;62853;46.166;3.640;2023-07-13T07:22:51;101477.88;;;18.57;100.00
74103;BME280;62853;46.166;3.640;2023-07-13T07:25:16;101476.91;;;18.58;100.00
74103;BME280;62853;46.166;3.640;2023-07-13T07:27:42;101479.78;;;18.67;100.00
74103;BME280;62853;46.166;3.640;2023-07-13T07:30:08;101476.69;;;18.84;100.00
74103;BME280;62853;46.166;3.640;2023-07-13T07:32:33;101475.44;;;19.00;100.00
74103;BME280;62853;46.166;3.640;2023-07-13T07:34:58;101474.09;;;19.17;100.00
74103;BME280;62853;46.166;3.640;2023-07-13T07:37:24;101481.91;;;19.41;100.00
74103;BME280;62853;46.166;3.640;2023-07-13T07:39:50;101484.97;;;20.22;100.00
74103;BME280;62853;46.166;3.640;2023-07-13T07:42:15;101483.28;;;21.13;100.00
74103;BME280;62853;46.166;3.640;2023-07-13T07:44:41;101482.16;;;22.43;100.00
74103;BME280;62853;46.166;3.640;2023-07-13T07:47:07;101480.63;;;23.87;100.00
74103;BME280;62853;46.166;3.640;2023-07-13T07:49:32;101479.41;;;25.46;99.22
74103;BME280;62853;46.166;3.640;2023-07-13T07:51:58;101490.72;;;26.31;85.54
74103;BME280;62853;46.166;3.640;2023-07-13T07:54:23;101487.28;;;27.02;69.73
74103;BME280;62853;46.166;3.640;2023-07-13T07:56:48;101489.03;;;26.86;67.06
74103;BME280;62853;46.166;3.640;2023-07-13T07:59:14;101500.03;;;27.16;74.61
74103;BME280;62853;46.166;3.640;2023-07-13T08:01:39;101492.66;;;28.26;64.15
74103;BME280;62853;46.166;3.640;2023-07-13T08:04:05;101491.19;;;28.83;59.46
74103;BME280;62853;46.166;3.640;2023-07-13T08:06:33;101495.09;;;28.80;58.51
74103;BME280;62853;46.166;3.640;2023-07-13T08:08:59;101494.91;;;28.52;56.72
74103;BME280;62853;46.166;3.640;2023-07-13T08:11:24;101489.88;;;28.49;57.82
74103;BME280;62853;46.166;3.640;2023-07-13T08:13:50;101492.28;;;28.88;52.60
74103;BME280;62853;46.166;3.640;2023-07-13T08:16:16;101487.97;;;28.19;57.33
74103;BME280;62853;46.166;3.640;2023-07-13T08:18:41;101489.16;;;27.79;56.56
74103;BME280;62853;46.166;3.640;2023-07-13T08:21:08;101484.66;;;27.71;58.19
74103;BME280;62853;46.166;3.640;2023-07-13T08:23:34;101484.22;;;28.06;52.71
74103;BME280;62853;46.166;3.640;2023-07-13T08:26:00;101490.84;;;27.34;54.29
74103;BME280;62853;46.166;3.640;2023-07-13T08:28:30;101492.50;;;27.03;60.26
74103;BME280;62853;46.166;3.640;2023-07-13T08:31:00;101490.13;;;27.63;58.19
74103;BME280;62853;46.166;3.640;2023-07-13T08:33:26;101494.19;;;27.04;54.04
74103;BME280;62853;46.166;3.640;2023-07-13T08:35:51;101502.34;;;26.32;56.36
74103;BME280;62853;46.166;3.640;2023-07-13T08:38:17;101495.44;;;28.17;61.39
74103;BME280;62853;46.166;3.640;2023-07-13T08:40:44;101494.28;;;28.65;53.02
74103;BME280;62853;46.166;3.640;2023-07-13T08:43:16;101498.97;;;27.57;50.68
74103;BME280;62853;46.166;3.640;2023-07-13T08:45:59;101500.72;;;27.96;55.37
74103;BME280;62853;46.166;3.640;2023-07-13T08:48:28;101500.16;;;29.35;49.59
74103;BME280;62853;46.166;3.640;2023-07-13T08:51:04;101493.72;;;29.21;49.80
74103;BME280;62853;46.166;3.640;2023-07-13T08:53:37;101503.03;;;28.97;51.03
74103;BME280;62853;46.166;3.640;2023-07-13T08:56:09;101502.00;;;29.92;48.64
74103;BME280;62853;46.166;3.640;2023-07-13T08:58:38;101488.66;;;28.81;46.67
74103;BME280;62853;46.166;3.640;2023-07-13T09:04:14;101488.34;;;26.36;54.52
74103;BME280;62853;46.166;3.640;2023-07-13T09:09:44;101496.81;;;25.76;52.54
74103;BME280;62853;46.166;3.640;2023-07-13T09:12:18;101502.88;;;25.11;60.37
74103;BME280;62853;46.166;3.640;2023-07-13T09:14:53;101490.38;;;25.93;59.36
74103;BME280;62853;46.166;3.640;2023-07-13T09:17:35;101483.59;;;26.95;55.78
74103;BME280;62853;46.166;3.640;2023-07-13T09:20:21;101488.06;;;27.42;54.72
74103;BME280;62853;46.166;3.640;2023-07-13T09:22:49;101485.06;;;27.83;57.37
74103;BME280;62853;46.166;3.640;2023-07-13T09:25:29;101488.59;;;27.83;52.78
74103;BME280;62853;46.166;3.640;2023-07-13T09:27:59;101492.41;;;27.97;55.41
74103;BME280;62853;46.166;3.640;2023-07-13T09:33:24;101488.75;;;27.13;50.26
74103;BME280;62853;46.166;3.640;2023-07-13T09:35:50;101485.03;;;27.14;51.20
74103;BME280;62853;46.166;3.640;2023-07-13T09:38:18;101478.09;;;27.11;50.34
74103;BME280;62853;46.166;3.640;2023-07-13T09:40:56;101479.97;;;26.71;53.38
74103;BME280;62853;46.166;3.640;2023-07-13T09:43:25;101486.69;;;27.15;54.35
74103;BME280;62853;46.166;3.640;2023-07-13T09:45:51;101472.91;;;28.02;49.20
74103;BME280;62853;46.166;3.640;2023-07-13T09:48:17;101484.22;;;28.20;46.94
74103;BME280;62853;46.166;3.640;2023-07-13T09:50:43;101487.72;;;27.14;49.72
74103;BME280;62853;46.166;3.640;2023-07-13T09:53:17;101490.22;;;26.28;54.88
74103;BME280;62853;46.166;3.640;2023-07-13T09:55:47;101493.59;;;25.56;55.78
74103;BME280;62853;46.166;3.640;2023-07-13T09:58:21;101495.44;;;25.47;56.63
74103;BME280;62853;46.166;3.640;2023-07-13T10:00:58;101489.03;;;25.81;59.49
74103;BME280;62853;46.166;3.640;2023-07-13T10:03:27;101483.84;;;26.12;57.37
74103;BME280;62853;46.166;3.640;2023-07-13T10:05:53;101486.72;;;26.75;62.28
74103;BME280;62853;46.166;3.640;2023-07-13T10:08:26;101489.16;;;26.93;55.56
74103;BME280;62853;46.166;3.640;2023-07-13T10:11:23;101493.00;;;26.59;54.37
74103;BME280;62853;46.166;3.640;2023-07-13T10:13:55;101492.91;;;25.87;56.21
74103;BME280;62853;46.166;3.640;2023-07-13T10:16:23;101482.03;;;26.52;56.81
74103;BME280;62853;46.166;3.640;2023-07-13T10:18:53;101490.84;;;27.34;53.78
74103;BME280;62853;46.166;3.640;2023-07-13T10:21:22;101491.41;;;26.81;51.38
74103;BME280;62853;46.166;3.640;2023-07-13T10:23:51;101490.75;;;27.19;54.37
74103;BME280;62853;46.166;3.640;2023-07-13T10:26:27;101489.25;;;28.09;48.97
74103;BME280;62853;46.166;3.640;2023-07-13T10:28:57;101493.19;;;27.60;47.04
74103;BME280;62853;46.166;3.640;2023-07-13T10:31:24;101498.50;;;26.90;52.67
74103;BME280;62853;46.166;3.640;2023-07-13T10:33:50;101489.63;;;26.57;51.43
74103;BME280;62853;46.166;3.640;2023-07-13T10:36:23;101488.84;;;26.24;53.97
74103;BME280;62853;46.166;3.640;2023-07-13T10:38:54;101490.38;;;25.85;52.82
74103;BME280;62853;46.166;3.640;2023-07-13T10:41:24;101506.41;;;25.54;56.24
74103;BME280;62853;46.166;3.640;2023-07-13T10:43:52;101500.41;;;25.25;54.45
74103;BME280;62853;46.166;3.640;2023-07-13T10:46:23;101499.25;;;24.85;53.76
74103;BME280;62853;46.166;3.640;2023-07-13T10:48:52;101503.56;;;24.44;58.40
74103;BME280;62853;46.166;3.640;2023-07-13T10:51:20;101506.03;;;24.11;75.47
74103;BME280;62853;46.166;3.640;2023-07-13T10:53:47;101512.09;;;24.13;83.52
74103;BME280;62853;46.166;3.640;2023-07-13T10:56:24;101518.19;;;25.02;75.52
74103;BME280;62853;46.166;3.640;2023-07-13T10:59:15;101504.53;;;25.54;67.88
74103;BME280;62853;46.166;3.640;2023-07-13T11:04:23;101509.63;;;25.82;57.21
74103;BME280;62853;46.166;3.640;2023-07-13T11:07:10;101510.97;;;25.86;60.78
74103;BME280;62853;46.166;3.640;2023-07-13T11:09:40;101500.00;;;25.88;66.22
74103;BME280;62853;46.166;3.640;2023-07-13T11:15:09;101504.97;;;25.25;57.63
74103;BME280;62853;46.166;3.640;2023-07-13T11:17:50;101503.41;;;24.72;64.34
74103;BME280;62853;46.166;3.640;2023-07-13T11:22:52;101500.88;;;24.18;59.06
74103;BME280;62853;46.166;3.640;2023-07-13T11:25:31;101506.47;;;24.24;62.26
74103;BME280;62853;46.166;3.640;2023-07-13T11:31:00;101503.06;;;25.17;55.42
74103;BME280;62853;46.166;3.640;2023-07-13T11:38:38;101496.38;;;26.69;52.45
74103;BME280;62853;46.166;3.640;2023-07-13T11:41:15;101491.31;;;26.58;54.77
74103;BME280;62853;46.166;3.640;2023-07-13T11:43:42;101498.41;;;26.59;53.54
74103;BME280;62853;46.166;3.640;2023-07-13T11:46:22;101503.09;;;26.82;56.02
74103;BME280;62853;46.166;3.640;2023-07-13T11:48:49;101493.47;;;26.79;49.92
74103;BME280;62853;46.166;3.640;2023-07-13T11:51:27;101488.00;;;26.96;51.56
74103;BME280;62853;46.166;3.640;2023-07-13T11:53:55;101496.94;;;27.27;49.90
74103;BME280;62853;46.166;3.640;2023-07-13T11:56:23;101496.16;;;27.19;45.78
74103;BME280;62853;46.166;3.640;2023-07-13T11:58:51;101499.72;;;27.11;46.91
74103;BME280;62853;46.166;3.640;2023-07-13T12:01:24;101499.50;;;27.29;48.83
74103;BME280;62853;46.166;3.640;2023-07-13T12:03:51;101500.78;;;27.41;46.64
74103;BME280;62853;46.166;3.640;2023-07-13T12:06:30;101505.63;;;27.69;46.42
74103;BME280;62853;46.166;3.640;2023-07-13T12:08:58;101498.78;;;27.35;45.83
74103;BME280;62853;46.166;3.640;2023-07-13T12:11:23;101499.66;;;27.27;45.44
74103;BME280;62853;46.166;3.640;2023-07-13T12:13:49;101503.53;;;27.25;43.18
74103;BME280;62853;46.166;3.640;2023-07-13T12:16:21;101508.59;;;27.36;44.05
74103;BME280;62853;46.166;3.640;2023-07-13T12:18:52;101513.81;;;27.38;44.12
74103;BME280;62853;46.166;3.640;2023-07-13T12:21:19;101510.50;;;27.51;44.24
74103;BME280;62853;46.166;3.640;2023-07-13T12:23:48;101520.22;;;27.37;43.90
74103;BME280;62853;46.166;3.640;2023-07-13T12:26:15;101522.28;;;27.26;42.35
74103;BME280;62853;46.166;3.640;2023-07-13T12:28:53;101522.69;;;27.15;44.77
74103;BME280;62853;46.166;3.640;2023-07-13T12:31:29;101521.56;;;27.01;43.96
74103;BME280;62853;46.166;3.640;2023-07-13T12:34:08;101525.97;;;27.02;44.21
74103;BME280;62853;46.166;3.640;2023-07-13T12:36:38;101524.72;;;26.82;44.75
74103;BME280;62853;46.166;3.640;2023-07-13T12:41:44;101528.19;;;26.43;45.73
74103;BME280;62853;46.166;3.640;2023-07-13T12:44:31;101542.53;;;26.18;47.76
74103;BME280;62853;46.166;3.640;2023-07-13T12:47:05;101548.09;;;25.92;49.39
74103;BME280;62853;46.166;3.640;2023-07-13T12:49:41;101549.06;;;25.58;47.27
74103;BME280;62853;46.166;3.640;2023-07-13T12:52:16;101553.38;;;25.35;49.36
74103;BME280;62853;46.166;3.640;2023-07-13T12:54:55;101550.50;;;24.94;49.59
74103;BME280;62853;46.166;3.640;2023-07-13T12:57:25;101548.09;;;24.56;51.70
74103;BME280;62853;46.166;3.640;2023-07-13T12:59:55;101540.63;;;24.24;53.29
74103;BME280;62853;46.166;3.640;2023-07-13T13:02:30;101550.56;;;24.05;56.22
74103;BME280;62853;46.166;3.640;2023-07-13T13:04:58;101550.50;;;23.97;59.17
74103;BME280;62853;46.166;3.640;2023-07-13T13:07:24;101559.47;;;23.88;61.61
74103;BME280;62853;46.166;3.640;2023-07-13T13:09:50;101565.69;;;23.70;69.26
74103;BME280;62853;46.166;3.640;2023-07-13T13:12:16;101574.72;;;23.51;100.00
74103;BME280;62853;46.166;3.640;2023-07-13T13:14:42;101562.34;;;23.13;100.00
74103;BME280;62853;46.166;3.640;2023-07-13T13:17:19;101564.53;;;22.90;100.00